createdAt,value
2023-05-17T00:00:14.416Z,102464.63
2023-05-17T00:02:41.297Z,102462.09
2023-05-17T00:05:08.606Z,102463.25
2023-05-17T00:07:35.410Z,102468.03
2023-05-17T00:10:02.158Z,102480.13
2023-05-17T00:12:29.155Z,102476.75
2023-05-17T00:14:55.913Z,102475.91
2023-05-17T00:17:22.784Z,102479.84
2023-05-17T00:19:49.575Z,102477.34
2023-05-17T00:22:16.362Z,102475.63
2023-05-17T00:24:43.127Z,102475.63
2023-05-17T00:27:10.332Z,102473.09
2023-05-17T00:29:37.168Z,102469.44
2023-05-17T00:32:04.209Z,102465.75
2023-05-17T00:34:31.062Z,102465.75
2023-05-17T00:36:57.905Z,102475.06
2023-05-17T00:39:24.729Z,102463.53
2023-05-17T00:41:51.646Z,102461.84
2023-05-17T00:44:18.428Z,102463.00
2023-05-17T00:46:46.947Z,102459.59
2023-05-17T00:49:13.773Z,102454.25
2023-05-17T00:51:40.991Z,102457.06
2023-05-17T00:54:08.051Z,102471.44
2023-05-17T00:56:34.785Z,102469.75
2023-05-17T00:59:02.359Z,102468.31
2023-05-17T01:01:29.311Z,102467.50
2023-05-17T01:03:56.609Z,102468.91
2023-05-17T01:06:24.274Z,102474.00
2023-05-17T01:08:51.760Z,102470.59
2023-05-17T01:11:21.566Z,102470.03
2023-05-17T01:13:55.726Z,102480.47
2023-05-17T01:16:26.182Z,102480.75
2023-05-17T01:18:57.810Z,102470.63
2023-05-17T01:21:27.867Z,102470.06
2023-05-17T01:24:00.251Z,102467.53
2023-05-17T01:26:28.414Z,102468.91
2023-05-17T01:28:55.353Z,102463.28
2023-05-17T01:31:22.821Z,102468.09
2023-05-17T01:33:49.858Z,102469.22
2023-05-17T01:36:16.680Z,102466.69
2023-05-17T01:38:43.485Z,102464.72
2023-05-17T01:41:16.343Z,102469.75
2023-05-17T01:43:43.551Z,102472.88
2023-05-17T01:46:13.949Z,102477.41
2023-05-17T01:48:43.446Z,102475.97
2023-05-17T01:51:12.189Z,102477.94
2023-05-17T01:53:43.195Z,102471.75
2023-05-17T01:56:15.377Z,102472.03
2023-05-17T01:58:45.182Z,102474.00
2023-05-17T02:01:13.648Z,102472.31
2023-05-17T02:03:40.512Z,102469.22
2023-05-17T02:06:07.540Z,102480.47
2023-05-17T02:08:34.313Z,102477.94
2023-05-17T02:11:01.089Z,102481.91
2023-05-17T02:13:27.938Z,102490.34
2023-05-17T02:15:54.696Z,102490.88
2023-05-17T02:18:22.089Z,102499.31
2023-05-17T02:20:49.025Z,102492.31
2023-05-17T02:23:16.367Z,102499.63
2023-05-17T02:25:43.423Z,102499.06
2023-05-17T02:28:11.121Z,102500.16
2023-05-17T02:30:41.506Z,102498.50
2023-05-17T02:33:08.598Z,102510.88
2023-05-17T02:35:35.732Z,102510.25
2023-05-17T02:38:02.549Z,102500.13
2023-05-17T02:40:29.419Z,102494.81
2023-05-17T02:42:56.171Z,102503.25
2023-05-17T02:45:22.978Z,102495.91
2023-05-17T02:47:49.754Z,102499.31
2023-05-17T02:50:16.529Z,102498.44
2023-05-17T02:52:43.449Z,102498.72
2023-05-17T02:55:10.490Z,102503.50
2023-05-17T02:57:37.294Z,102499.00
2023-05-17T03:00:04.397Z,102497.31
2023-05-17T03:02:31.538Z,102498.44
2023-05-17T03:04:58.839Z,102508.84
2023-05-17T03:07:25.662Z,102515.31
2023-05-17T03:09:52.434Z,102508.00
2023-05-17T03:12:19.375Z,102515.91
2023-05-17T03:14:46.323Z,102519.81
2023-05-17T03:17:13.059Z,102519.81
2023-05-17T03:19:39.906Z,102524.59
2023-05-17T03:22:06.780Z,102526.56
2023-05-17T03:24:33.579Z,102518.41
2023-05-17T03:27:00.497Z,102512.22
2023-05-17T03:29:27.251Z,102518.13
2023-05-17T03:31:54.020Z,102508.28
2023-05-17T03:34:20.853Z,102517.00
2023-05-17T03:36:47.598Z,102523.19
2023-05-17T03:39:14.571Z,102527.97
2023-05-17T03:41:42.338Z,102532.16
2023-05-17T03:44:09.180Z,102531.31
2023-05-17T03:46:35.922Z,102530.47
2023-05-17T03:49:02.896Z,102527.09
2023-05-17T03:51:30.020Z,102534.69
2023-05-17T03:53:58.664Z,102532.16
2023-05-17T03:56:25.513Z,102535.25
2023-05-17T03:58:52.447Z,102534.13
2023-05-17T04:01:20.567Z,102545.66
2023-05-17T04:03:47.665Z,102543.97
2023-05-17T04:06:14.997Z,102543.13
2023-05-17T04:08:42.056Z,102546.19
2023-05-17T04:11:11.943Z,102550.16
2023-05-17T04:13:38.741Z,102546.50
2023-05-17T04:16:05.930Z,102542.81
2023-05-17T04:18:35.158Z,102550.41
2023-05-17T04:21:02.233Z,102547.03
2023-05-17T04:23:29.192Z,102557.44
2023-05-17T04:25:57.077Z,102556.59
2023-05-17T04:28:24.252Z,102566.16
2023-05-17T04:30:51.169Z,102561.09
2023-05-17T04:33:18.301Z,102564.19
2023-05-17T04:35:46.031Z,102565.03
2023-05-17T04:38:12.812Z,102564.47
2023-05-17T04:40:39.840Z,102559.09
2023-05-17T04:43:06.705Z,102577.13
2023-05-17T04:45:34.179Z,102566.97
2023-05-17T04:48:01.733Z,102583.00
2023-05-17T04:50:28.642Z,102576.78
2023-05-17T04:52:55.576Z,102578.78
2023-05-17T04:55:22.479Z,102581.59
2023-05-17T04:57:49.256Z,102583.81
2023-05-17T05:00:16.427Z,102587.22
2023-05-17T05:02:43.191Z,102596.19
2023-05-17T05:05:11.064Z,102594.50
2023-05-17T05:07:40.064Z,102591.97
2023-05-17T05:10:07.382Z,102597.00
2023-05-17T05:12:34.136Z,102601.53
2023-05-17T05:15:01.334Z,102605.44
2023-05-17T05:17:29.857Z,102609.38
2023-05-17T05:19:57.334Z,102612.19
2023-05-17T05:22:24.134Z,102610.50
2023-05-17T05:24:52.124Z,102609.91
2023-05-17T05:27:18.894Z,102609.66
2023-05-17T05:29:46.221Z,102613.59
2023-05-17T05:32:13.040Z,102611.03
2023-05-17T05:34:40.201Z,102613.84
2023-05-17T05:37:07.004Z,102600.09
2023-05-17T05:39:33.810Z,102603.41
2023-05-17T05:42:00.770Z,102605.13
2023-05-17T05:44:27.617Z,102605.38
2023-05-17T05:46:54.482Z,102621.13
2023-05-17T05:49:21.277Z,102621.69
2023-05-17T05:51:48.105Z,102625.63
2023-05-17T05:54:15.159Z,102628.44
2023-05-17T05:56:42.036Z,102636.31
2023-05-17T05:59:08.944Z,102645.84
2023-05-17T06:01:35.981Z,102640.53
2023-05-17T06:04:02.825Z,102642.75
2023-05-17T06:06:29.876Z,102641.63
2023-05-17T06:08:59.478Z,102637.41
2023-05-17T06:11:26.815Z,102638.53
2023-05-17T06:13:54.916Z,102634.59
2023-05-17T06:16:21.840Z,102629.75
2023-05-17T06:18:51.403Z,102639.31
2023-05-17T06:21:18.770Z,102642.66
2023-05-17T06:23:45.767Z,102639.34
2023-05-17T06:26:12.662Z,102634.84
2023-05-17T06:28:39.686Z,102647.84
2023-05-17T06:31:06.641Z,102647.53
2023-05-17T06:33:33.572Z,102635.16
2023-05-17T06:38:27.594Z,102632.66
2023-05-17T06:40:54.914Z,102638.69
2023-05-17T06:43:23.359Z,102644.81
2023-05-17T06:45:50.478Z,102648.50
2023-05-17T06:48:17.437Z,102648.00
2023-05-17T06:50:44.455Z,102655.84
2023-05-17T06:53:11.453Z,102656.69
2023-05-17T06:55:38.552Z,102663.38
2023-05-17T06:58:05.421Z,102657.97
2023-05-17T07:00:32.771Z,102665.69
2023-05-17T07:03:00.247Z,102669.59
2023-05-17T07:05:29.503Z,102665.44
2023-05-17T07:07:57.542Z,102662.97
2023-05-17T07:10:24.447Z,102666.63
2023-05-17T07:12:51.688Z,102666.47
2023-05-17T07:15:18.700Z,102667.94
2023-05-17T07:17:45.597Z,102671.75
2023-05-17T07:20:13.434Z,102660.38
2023-05-17T07:22:40.901Z,102660.47
2023-05-17T07:25:08.670Z,102665.34
2023-05-17T07:27:36.170Z,102666.81
2023-05-17T07:30:04.391Z,102666.59
2023-05-17T07:32:31.412Z,102664.72
2023-05-17T07:34:58.538Z,102659.41
2023-05-17T07:37:25.709Z,102663.88
2023-05-17T07:39:52.915Z,102669.31
2023-05-17T07:42:20.120Z,102677.19
2023-05-17T07:44:49.042Z,102673.81
2023-05-17T07:47:16.598Z,102679.50
2023-05-17T07:49:44.644Z,102678.09
2023-05-17T07:52:12.044Z,102682.31
2023-05-17T07:54:39.092Z,102678.09
2023-05-17T07:57:08.165Z,102678.41
2023-05-17T07:59:35.256Z,102679.59
2023-05-17T08:02:02.140Z,102671.19
2023-05-17T08:04:29.811Z,102667.28
2023-05-17T08:06:56.851Z,102674.59
2023-05-17T08:09:23.854Z,102677.13
2023-05-17T08:11:51.585Z,102673.19
2023-05-17T08:14:24.877Z,102681.59
2023-05-17T08:16:52.393Z,102684.41
2023-05-17T08:19:19.443Z,102681.59
2023-05-17T08:21:46.588Z,102680.50
2023-05-17T08:24:25.389Z,102684.41
2023-05-17T08:26:52.389Z,102681.34
2023-05-17T08:29:19.322Z,102683.56
2023-05-17T08:31:46.479Z,102681.03
2023-05-17T08:34:13.778Z,102676.78
2023-05-17T08:36:40.818Z,102677.38
2023-05-17T08:39:08.847Z,102684.94
2023-05-17T08:41:37.108Z,102680.19
2023-05-17T08:44:09.573Z,102682.47
2023-05-17T08:46:38.788Z,102674.34
2023-05-17T08:49:06.697Z,102676.84
2023-05-17T08:51:33.991Z,102677.44
2023-05-17T08:54:32.529Z,102661.47
2023-05-17T08:57:00.463Z,102670.75
2023-05-17T08:59:27.712Z,102672.94
2023-05-17T09:01:55.268Z,102655.56
2023-05-17T09:04:41.102Z,102668.25
2023-05-17T09:07:08.088Z,102661.53
2023-05-17T09:09:35.338Z,102665.16
2023-05-17T09:12:04.677Z,102664.66
2023-05-17T09:14:39.914Z,102659.91
2023-05-17T09:17:07.341Z,102664.13
2023-05-17T09:19:34.613Z,102661.91
2023-05-17T09:22:02.925Z,102665.03
2023-05-17T09:24:36.618Z,102657.47
2023-05-17T09:27:10.209Z,102652.72
2023-05-17T09:29:39.567Z,102647.94
2023-05-17T09:32:09.637Z,102650.47
2023-05-17T09:34:43.043Z,102644.91
2023-05-17T09:39:56.534Z,102645.22
2023-05-17T09:42:26.677Z,102635.69
2023-05-17T09:44:57.901Z,102641.63
2023-05-17T09:47:26.016Z,102639.66
2023-05-17T09:49:53.301Z,102641.97
2023-05-17T09:52:21.589Z,102638.63
2023-05-17T09:54:52.801Z,102641.19
2023-05-17T09:57:19.699Z,102638.94
2023-05-17T09:59:47.325Z,102635.91
2023-05-17T10:02:20.132Z,102641.81
2023-05-17T10:04:49.670Z,102641.56
2023-05-17T10:07:20.001Z,102637.09
2023-05-17T10:09:47.788Z,102636.25
2023-05-17T10:12:17.584Z,102642.72
2023-05-17T10:14:45.274Z,102636.81
2023-05-17T10:17:13.151Z,102637.66
2023-05-17T10:19:40.341Z,102637.41
2023-05-17T10:22:21.588Z,102631.00
2023-05-17T10:24:51.740Z,102625.38
2023-05-17T10:27:19.164Z,102629.88
2023-05-17T10:29:49.879Z,102629.09
2023-05-17T10:32:19.667Z,102623.47
2023-05-17T10:34:54.476Z,102624.88
2023-05-17T10:37:29.603Z,102626.31
2023-05-17T10:39:57.376Z,102613.13
2023-05-17T10:42:25.275Z,102616.50
2023-05-17T10:44:53.744Z,102607.50
2023-05-17T10:47:20.715Z,102610.84
2023-05-17T10:49:48.484Z,102612.78
2023-05-17T10:52:16.916Z,102616.75
2023-05-17T10:54:45.212Z,102619.25
2023-05-17T10:57:19.862Z,102613.13
2023-05-17T10:59:49.859Z,102606.69
2023-05-17T11:02:23.850Z,102598.84
2023-05-17T11:04:54.233Z,102598.56
2023-05-17T11:07:22.420Z,102586.78
2023-05-17T11:09:52.705Z,102596.03
2023-05-17T11:12:22.685Z,102602.75
2023-05-17T11:17:27.016Z,102602.50
2023-05-17T11:19:55.588Z,102606.69
2023-05-17T11:22:24.512Z,102601.91
2023-05-17T11:24:53.087Z,102598.28
2023-05-17T11:27:20.879Z,102601.34
2023-05-17T11:29:48.767Z,102598.53
2023-05-17T11:32:16.044Z,102594.03
2023-05-17T11:34:43.014Z,102596.00
2023-05-17T11:37:12.173Z,102593.19
2023-05-17T11:39:58.979Z,102587.00
2023-05-17T11:42:26.584Z,102589.53
2023-05-17T11:44:56.862Z,102589.22
2023-05-17T11:47:23.888Z,102591.78
2023-05-17T11:49:54.313Z,102592.28
2023-05-17T11:52:22.868Z,102594.84
2023-05-17T11:54:50.456Z,102592.28
2023-05-17T11:57:18.459Z,102588.66
2023-05-17T11:59:45.339Z,102594.53
2023-05-17T12:02:26.265Z,102591.19
2023-05-17T12:04:53.286Z,102583.31
2023-05-17T12:07:20.447Z,102584.16
2023-05-17T12:09:48.129Z,102586.97
2023-05-17T12:12:15.872Z,102580.22
2023-05-17T12:14:44.720Z,102583.31
2023-05-17T12:17:13.683Z,102583.31
2023-05-17T12:19:40.887Z,102578.53
2023-05-17T12:22:08.979Z,102583.03
2023-05-17T12:24:38.073Z,102586.41
2023-05-17T12:27:05.099Z,102575.44
2023-05-17T12:29:32.245Z,102573.47
2023-05-17T12:31:59.941Z,102572.91
2023-05-17T12:34:27.173Z,102569.00
2023-05-17T12:36:54.556Z,102582.19
2023-05-17T12:39:24.955Z,102572.63
2023-05-17T12:41:52.689Z,102569.81
2023-05-17T12:44:35.458Z,102572.97
2023-05-17T12:47:03.601Z,102573.22
2023-05-17T12:49:30.523Z,102574.63
2023-05-17T12:52:04.001Z,102566.50
2023-05-17T12:54:31.078Z,102569.31
2023-05-17T12:56:58.111Z,102573.47
2023-05-17T12:59:25.956Z,102577.13
2023-05-17T13:02:06.778Z,102576.28
2023-05-17T13:04:38.369Z,102576.56
2023-05-17T13:07:05.369Z,102571.81
2023-05-17T13:09:32.985Z,102572.38
2023-05-17T13:12:01.079Z,102564.78
2023-05-17T13:14:33.852Z,102554.97
2023-05-17T13:19:26.915Z,102568.66
2023-05-17T13:21:53.500Z,102558.84
2023-05-17T13:24:20.075Z,102561.94
2023-05-17T13:26:46.655Z,102566.72
2023-05-17T13:29:13.283Z,102558.56
2023-05-17T13:31:41.800Z,102561.09
2023-05-17T13:34:08.386Z,102555.47
2023-05-17T13:36:34.992Z,102568.97
2023-05-17T13:39:02.240Z,102567.00
2023-05-17T13:41:28.840Z,102560.25
2023-05-17T13:46:24.001Z,102555.47
2023-05-17T13:48:50.644Z,102560.84
2023-05-17T13:51:17.317Z,102561.69
2023-05-17T13:53:44.785Z,102558.88
2023-05-17T13:56:11.518Z,102554.09
2023-05-17T13:58:38.063Z,102552.66
2023-05-17T14:01:04.795Z,102554.38
2023-05-17T14:03:31.981Z,102553.81
2023-05-17T14:05:58.655Z,102541.47
2023-05-17T14:08:25.290Z,102547.94
2023-05-17T14:10:51.927Z,102550.19
2023-05-17T14:15:44.776Z,102541.22
2023-05-17T14:18:11.460Z,102538.66
2023-05-17T14:20:38.099Z,102536.44
2023-05-17T14:23:04.616Z,102542.91
2023-05-17T14:25:31.181Z,102539.56
2023-05-17T14:30:33.122Z,102542.09
2023-05-17T14:32:59.838Z,102539.84
2023-05-17T14:35:26.386Z,102541.84
2023-05-17T14:37:53.074Z,102541.03
2023-05-17T14:40:19.592Z,102551.75
2023-05-17T14:42:46.667Z,102540.81
2023-05-17T14:45:14.001Z,102539.19
2023-05-17T14:47:40.812Z,102534.41
2023-05-17T14:50:08.004Z,102526.00
2023-05-17T14:52:35.018Z,102531.38
2023-05-17T14:55:02.091Z,102523.00
2023-05-17T14:57:28.665Z,102521.91
2023-05-17T14:59:55.267Z,102532.06
2023-05-17T15:02:21.864Z,102523.38
2023-05-17T15:04:48.734Z,102520.03
2023-05-17T15:07:15.447Z,102506.84
2023-05-17T15:09:43.434Z,102516.94
2023-05-17T15:12:13.102Z,102513.03
2023-05-17T15:14:40.602Z,102510.25
2023-05-17T15:17:07.420Z,102513.91
2023-05-17T15:19:34.077Z,102509.41
2023-05-17T15:22:01.822Z,102515.31
2023-05-17T15:24:29.494Z,102507.16
2023-05-17T15:26:56.198Z,102494.22
2023-05-17T15:29:22.773Z,102501.28
2023-05-17T15:31:49.319Z,102508.06
2023-05-17T15:34:16.115Z,102499.63
2023-05-17T15:36:42.867Z,102505.53
2023-05-17T15:39:09.578Z,102509.47
2023-05-17T15:44:02.726Z,102514.25
2023-05-17T15:46:29.287Z,102517.66
2023-05-17T15:48:56.639Z,102519.31
2023-05-17T15:51:23.408Z,102510.59
2023-05-17T15:53:50.034Z,102523.56
2023-05-17T15:56:16.484Z,102520.47
2023-05-17T15:58:43.004Z,102527.75
2023-05-17T16:06:04.638Z,102516.81
2023-05-17T16:08:31.615Z,102522.13
2023-05-17T16:10:59.307Z,102520.75
2023-05-17T16:13:26.970Z,102528.88
2023-05-17T16:15:53.528Z,102519.91
2023-05-17T16:18:20.197Z,102521.56
2023-05-17T16:20:46.903Z,102517.63
2023-05-17T16:25:38.814Z,102521.03
2023-05-17T16:28:05.371Z,102518.22
2023-05-17T16:30:32.073Z,102517.63
2023-05-17T16:32:58.807Z,102520.19
2023-05-17T16:35:25.702Z,102512.84
2023-05-17T16:40:17.792Z,102513.16
2023-05-17T16:42:44.754Z,102511.44
2023-05-17T16:45:11.465Z,102513.41
2023-05-17T16:47:38.233Z,102516.22
2023-05-17T16:50:05.742Z,102519.06
2023-05-17T16:52:32.294Z,102516.50
2023-05-17T16:55:03.518Z,102513.69
2023-05-17T16:57:31.809Z,102512.84
2023-05-17T17:04:53.969Z,102513.16
2023-05-17T17:07:20.799Z,102512.56
2023-05-17T17:09:47.500Z,102519.91
2023-05-17T17:12:24.241Z,102524.41
2023-05-17T17:14:52.457Z,102523.28
2023-05-17T17:17:18.978Z,102525.78
2023-05-17T17:19:45.693Z,102521.00
2023-05-17T17:22:14.237Z,102527.50
2023-05-17T17:24:40.843Z,102526.66
2023-05-17T17:27:07.442Z,102528.34
2023-05-17T17:29:34.202Z,102533.97
2023-05-17T17:32:00.867Z,102533.69
2023-05-17T17:34:27.620Z,102530.56
2023-05-17T17:36:54.433Z,102539.59
2023-05-17T17:39:21.061Z,102529.75
2023-05-17T17:41:47.707Z,102538.19
2023-05-17T17:44:15.289Z,102535.38
2023-05-17T17:46:42.528Z,102535.66
2023-05-17T17:49:09.087Z,102540.72
2023-05-17T17:51:35.692Z,102545.50
2023-05-17T17:54:05.013Z,102549.44
2023-05-17T17:56:32.877Z,102542.97
2023-05-17T17:58:59.898Z,102550.56
2023-05-17T18:01:26.838Z,102555.34
2023-05-17T18:03:53.609Z,102558.72
2023-05-17T18:06:20.439Z,102557.88
2023-05-17T18:08:46.992Z,102562.94
2023-05-17T18:11:14.304Z,102552.78
2023-05-17T18:13:41.653Z,102557.00
2023-05-17T18:16:08.553Z,102555.28
2023-05-17T18:18:37.400Z,102553.59
2023-05-17T18:21:04.707Z,102556.97
2023-05-17T18:23:31.870Z,102555.00
2023-05-17T18:25:58.948Z,102559.25
2023-05-17T18:28:40.894Z,102552.78
2023-05-17T18:31:09.423Z,102559.78
2023-05-17T18:33:36.546Z,102557.81
2023-05-17T18:36:03.570Z,102560.63
2023-05-17T18:38:30.607Z,102560.34
2023-05-17T18:40:57.965Z,102556.69
2023-05-17T18:43:24.834Z,102565.38
2023-05-17T18:45:51.818Z,102564.53
2023-05-17T18:48:18.954Z,102562.56
2023-05-17T18:50:46.277Z,102560.91
2023-05-17T18:53:13.413Z,102558.63
2023-05-17T18:55:41.418Z,102573.53
2023-05-17T18:58:08.465Z,102561.75
2023-05-17T19:00:35.576Z,102564.56
2023-05-17T19:03:04.938Z,102572.41
2023-05-17T19:05:32.050Z,102558.06
2023-05-17T19:07:59.418Z,102564.53
2023-05-17T19:10:26.761Z,102571.84
2023-05-17T19:12:53.822Z,102570.16
2023-05-17T19:15:21.454Z,102565.38
2023-05-17T19:17:48.792Z,102565.91
2023-05-17T19:20:16.219Z,102563.41
2023-05-17T19:22:43.437Z,102569.56
2023-05-17T19:25:10.691Z,102574.34
2023-05-17T19:27:37.990Z,102565.88
2023-05-17T19:30:06.480Z,102577.13
2023-05-17T19:32:33.880Z,102574.63
2023-05-17T19:35:01.894Z,102577.13
2023-05-17T19:37:29.047Z,102576.56
2023-05-17T19:39:56.317Z,102574.00
2023-05-17T19:42:24.251Z,102583.59
2023-05-17T19:44:51.216Z,102583.84
2023-05-17T19:47:18.204Z,102585.81
2023-05-17T19:49:45.137Z,102584.13
2023-05-17T19:52:12.313Z,102585.53
2023-05-17T19:54:39.437Z,102588.59
2023-05-17T19:57:06.538Z,102596.19
2023-05-17T19:59:33.864Z,102590.84
2023-05-17T20:02:00.980Z,102582.69
2023-05-17T20:04:28.162Z,102594.50
2023-05-17T20:06:55.107Z,102592.81
2023-05-17T20:09:22.216Z,102601.25
2023-05-17T20:11:49.406Z,102598.97
2023-05-17T20:14:16.465Z,102600.66
2023-05-17T20:16:43.528Z,102607.69
2023-05-17T20:19:11.129Z,102607.13
2023-05-17T20:21:38.351Z,102613.84
2023-05-17T20:24:07.155Z,102615.81
2023-05-17T20:26:37.360Z,102610.75
2023-05-17T20:29:07.541Z,102607.94
2023-05-17T20:31:35.297Z,102617.47
2023-05-17T20:34:02.510Z,102617.22
2023-05-17T20:36:29.752Z,102615.84
2023-05-17T20:38:56.689Z,102614.72
2023-05-17T20:41:24.121Z,102612.47
2023-05-17T20:43:51.981Z,102611.84
2023-05-17T20:46:19.021Z,102611.84
2023-05-17T20:48:48.401Z,102609.88
2023-05-17T20:51:16.114Z,102609.03
2023-05-17T20:53:43.284Z,102604.84
2023-05-17T20:56:10.861Z,102614.97
2023-05-17T20:58:37.744Z,102619.44
2023-05-17T21:01:06.009Z,102616.06
2023-05-17T21:03:34.361Z,102616.34
2023-05-17T21:06:01.925Z,102616.91
2023-05-17T21:08:28.950Z,102618.88
2023-05-17T21:10:56.355Z,102606.53
2023-05-17T21:13:25.787Z,102611.56
2023-05-17T21:15:53.776Z,102616.63
2023-05-17T21:18:21.259Z,102609.31
2023-05-17T21:20:49.304Z,102611.53
2023-05-17T21:23:16.162Z,102614.06
2023-05-17T21:25:44.529Z,102617.19
2023-05-17T21:28:11.446Z,102617.19
2023-05-17T21:30:38.378Z,102616.91
2023-05-17T21:33:05.785Z,102622.00
2023-05-17T21:35:32.839Z,102617.81
2023-05-17T21:37:59.705Z,102628.53
2023-05-17T21:40:26.693Z,102626.84
2023-05-17T21:42:53.624Z,102612.25
2023-05-17T21:45:20.695Z,102617.88
2023-05-17T21:47:48.843Z,102608.63
2023-05-17T21:50:16.460Z,102616.25
2023-05-17T21:52:44.970Z,102616.25
2023-05-17T21:55:11.868Z,102609.81
2023-05-17T21:57:38.782Z,102610.09
2023-05-17T22:00:06.231Z,102605.59
2023-05-17T22:02:34.209Z,102606.75
2023-05-17T22:05:01.426Z,102599.72
2023-05-17T22:07:28.408Z,102595.25
2023-05-17T22:09:55.377Z,102596.38
2023-05-17T22:12:25.765Z,102595.81
2023-05-17T22:14:54.356Z,102595.31
2023-05-17T22:17:29.542Z,102588.25
2023-05-17T22:20:03.372Z,102591.34
2023-05-17T22:22:32.017Z,102588.28
2023-05-17T22:24:58.855Z,102587.72
2023-05-17T22:27:25.775Z,102589.13
2023-05-17T22:29:52.673Z,102588.88
2023-05-17T22:32:19.525Z,102589.41
2023-05-17T22:34:46.341Z,102595.91
2023-05-17T22:37:13.219Z,102595.31
2023-05-17T22:39:40.916Z,102586.03
2023-05-17T22:42:08.398Z,102594.78
2023-05-17T22:44:36.330Z,102590.81
2023-05-17T22:47:04.869Z,102596.19
2023-05-17T22:49:34.276Z,102591.41
2023-05-17T22:52:04.649Z,102594.22
2023-05-17T22:54:33.364Z,102598.72
2023-05-17T22:57:01.042Z,102601.25
2023-05-17T22:59:28.639Z,102603.53
2023-05-17T23:01:55.764Z,102608.31
2023-05-17T23:04:26.261Z,102607.19
2023-05-17T23:06:54.110Z,102595.94
2023-05-17T23:09:22.099Z,102601.25
2023-05-17T23:11:50.186Z,102602.09
2023-05-17T23:14:17.726Z,102587.75
2023-05-17T23:16:44.848Z,102601.00
2023-05-17T23:19:13.543Z,102602.69
2023-05-17T23:21:40.388Z,102605.50
2023-05-17T23:24:08.202Z,102603.22
2023-05-17T23:26:35.325Z,102602.13
2023-05-17T23:29:03.695Z,102606.91
2023-05-17T23:31:30.510Z,102606.91
2023-05-17T23:33:57.315Z,102605.19
2023-05-17T23:36:24.120Z,102611.69
2023-05-17T23:38:51.018Z,102608.88
2023-05-17T23:41:19.919Z,102608.88
2023-05-17T23:43:47.061Z,102609.72
2023-05-17T23:46:13.923Z,102612.53
2023-05-17T23:48:40.825Z,102614.50
2023-05-17T23:51:08.037Z,102608.88
2023-05-17T23:53:35.127Z,102616.78
2023-05-17T23:56:02.136Z,102611.97
2023-05-17T23:58:28.981Z,102599.88
